createdAt,value
2023-04-22T00:00:08.251Z,9.00
2023-04-22T00:01:08.205Z,9.20
2023-04-22T00:02:08.240Z,8.80
2023-04-22T00:03:08.262Z,10.20
2023-04-22T00:04:08.455Z,8.80
2023-04-22T00:05:08.100Z,9.40
2023-04-22T00:06:07.980Z,9.50
2023-04-22T00:07:07.913Z,9.40
2023-04-22T00:08:07.867Z,8.80
2023-04-22T00:09:07.823Z,8.80
2023-04-22T00:10:07.778Z,9.20
2023-04-22T00:11:07.747Z,9.00
2023-04-22T00:12:07.695Z,9.00
2023-04-22T00:13:07.654Z,9.00
2023-04-22T00:14:07.600Z,9.60
2023-04-22T00:15:07.535Z,9.40
2023-04-22T00:16:07.743Z,9.40
2023-04-22T00:17:07.445Z,9.20
2023-04-22T00:18:07.457Z,9.30
2023-04-22T00:19:07.352Z,9.50
2023-04-22T00:20:07.306Z,9.10
2023-04-22T00:21:07.254Z,9.90
2023-04-22T00:22:07.230Z,9.50
2023-04-22T00:23:07.165Z,10.10
2023-04-22T00:24:07.112Z,9.90
2023-04-22T00:25:07.084Z,9.80
2023-04-22T00:26:07.025Z,10.50
2023-04-22T00:27:06.985Z,9.90
2023-04-22T00:28:06.924Z,10.00
2023-04-22T00:29:06.900Z,10.20
2023-04-22T00:30:06.850Z,10.40
2023-04-22T00:31:06.819Z,11.40
2023-04-22T00:32:06.737Z,11.00
2023-04-22T00:33:06.749Z,11.60
2023-04-22T00:34:06.656Z,11.00
2023-04-22T00:35:06.681Z,11.10
2023-04-22T00:36:06.552Z,10.90
2023-04-22T00:37:06.505Z,11.70
2023-04-22T00:38:06.468Z,10.90
2023-04-22T00:39:06.418Z,11.00
2023-04-22T00:40:06.357Z,10.50
2023-04-22T00:41:06.308Z,10.40
2023-04-22T00:42:06.261Z,11.30
2023-04-22T00:43:06.215Z,10.60
2023-04-22T00:44:06.166Z,11.50
2023-04-22T00:45:06.121Z,11.30
2023-04-22T00:46:06.099Z,12.00
2023-04-22T00:47:06.082Z,11.10
2023-04-22T00:48:06.079Z,10.00
2023-04-22T00:49:05.933Z,10.20
2023-04-22T00:50:05.887Z,9.20
2023-04-22T00:51:05.836Z,9.30
2023-04-22T00:52:05.796Z,9.00
2023-04-22T00:53:05.741Z,9.40
2023-04-22T00:54:05.711Z,9.20
2023-04-22T00:55:05.643Z,10.20
2023-04-22T00:56:05.596Z,10.70
2023-04-22T00:57:05.551Z,10.70
2023-04-22T00:58:05.501Z,11.40
2023-04-22T00:59:05.465Z,12.20
2023-04-22T01:00:05.429Z,11.00
2023-04-22T01:01:05.402Z,11.70
2023-04-22T01:02:05.384Z,11.40
2023-04-22T01:03:05.469Z,12.40
2023-04-22T01:04:05.397Z,12.50
2023-04-22T01:05:05.175Z,11.50
2023-04-22T01:06:05.140Z,12.50
2023-04-22T01:07:05.082Z,12.70
2023-04-22T01:08:05.035Z,12.70
2023-04-22T01:09:05.018Z,11.80
2023-04-22T01:10:05.004Z,12.10
2023-04-22T01:11:04.968Z,12.90
2023-04-22T01:12:04.849Z,12.30
2023-04-22T01:13:04.797Z,12.50
2023-04-22T01:14:04.756Z,12.20
2023-04-22T01:15:05.184Z,12.60
2023-04-22T01:16:04.764Z,12.50
2023-04-22T01:17:04.692Z,13.20
2023-04-22T01:18:04.623Z,13.20
2023-04-22T01:19:04.517Z,13.80
2023-04-22T01:20:04.609Z,13.20
2023-04-22T01:21:04.433Z,14.00
2023-04-22T01:22:04.374Z,13.30
2023-04-22T01:23:04.333Z,13.60
2023-04-22T01:24:04.281Z,13.10
2023-04-22T01:25:04.243Z,13.10
2023-04-22T01:26:04.211Z,12.70
2023-04-22T01:27:04.140Z,12.70
2023-04-22T01:28:04.113Z,12.30
2023-04-22T01:29:04.045Z,12.80
2023-04-22T01:30:04.010Z,13.00
2023-04-22T01:31:03.955Z,13.00
2023-04-22T01:32:04.037Z,11.90
2023-04-22T01:33:03.893Z,12.40
2023-04-22T01:34:03.831Z,12.50
2023-04-22T01:35:03.774Z,13.00
2023-04-22T01:36:03.726Z,13.50
2023-04-22T01:37:03.667Z,13.50
2023-04-22T01:38:03.618Z,13.70
2023-04-22T01:39:03.591Z,13.20
2023-04-22T01:40:03.527Z,13.50
2023-04-22T01:41:03.477Z,13.10
2023-04-22T01:42:03.510Z,14.00
2023-04-22T01:43:03.392Z,13.80
2023-04-22T01:44:03.339Z,14.10
2023-04-22T01:45:03.290Z,14.90
2023-04-22T01:46:03.261Z,14.80
2023-04-22T01:47:03.194Z,13.80
2023-04-22T01:48:03.175Z,14.30
2023-04-22T01:49:03.107Z,14.40
2023-04-22T01:50:03.054Z,14.20
2023-04-22T01:51:03.011Z,15.30
2023-04-22T01:52:02.963Z,16.00
2023-04-22T01:53:02.963Z,15.10
2023-04-22T01:54:02.867Z,16.80
2023-04-22T01:55:02.828Z,15.80
2023-04-22T01:56:02.774Z,16.40
2023-04-22T01:57:02.725Z,16.70
2023-04-22T01:58:02.699Z,16.20
2023-04-22T01:59:02.637Z,16.50
2023-04-22T02:00:02.606Z,16.30
2023-04-22T02:01:02.551Z,16.10
2023-04-22T02:02:02.544Z,16.80
2023-04-22T02:03:02.533Z,16.00
2023-04-22T02:04:02.410Z,17.00
2023-04-22T02:05:02.425Z,16.00
2023-04-22T02:06:02.299Z,17.20
2023-04-22T02:07:02.256Z,15.50
2023-04-22T02:08:02.204Z,16.60
2023-04-22T02:09:02.158Z,16.70
2023-04-22T02:10:02.110Z,17.90
2023-04-22T02:11:02.064Z,17.40
2023-04-22T02:12:02.026Z,17.60
2023-04-22T02:13:01.977Z,16.70
2023-04-22T02:14:01.937Z,17.00
2023-04-22T02:15:01.882Z,17.00
2023-04-22T02:16:01.875Z,16.40
2023-04-22T02:17:01.821Z,17.50
2023-04-22T02:18:01.733Z,16.90
2023-04-22T02:19:01.697Z,17.20
2023-04-22T02:20:01.733Z,18.20
2023-04-22T02:21:01.590Z,17.00
2023-04-22T02:22:01.542Z,16.50
2023-04-22T02:23:01.518Z,17.00
2023-04-22T02:24:01.445Z,17.10
2023-04-22T02:25:01.411Z,17.20
2023-04-22T02:26:01.356Z,17.60
2023-04-22T02:27:01.316Z,17.40
2023-04-22T02:28:01.264Z,16.20
2023-04-22T02:29:01.213Z,17.30
2023-04-22T02:30:01.216Z,18.70
2023-04-22T02:31:01.164Z,18.80
2023-04-22T02:32:01.077Z,17.90
2023-04-22T02:33:01.134Z,18.50
2023-04-22T02:34:00.995Z,18.80
2023-04-22T02:35:00.944Z,19.30
2023-04-22T02:36:00.886Z,18.70
2023-04-22T02:37:00.836Z,18.60
2023-04-22T02:38:00.802Z,18.10
2023-04-22T02:39:00.744Z,18.30
2023-04-22T02:40:00.706Z,17.40
2023-04-22T02:41:00.646Z,18.50
2023-04-22T02:42:00.601Z,18.80
2023-04-22T02:43:00.559Z,17.50
2023-04-22T02:44:00.532Z,17.40
2023-04-22T02:45:00.466Z,18.00
2023-04-22T02:46:00.453Z,18.30
2023-04-22T02:47:00.503Z,17.60
2023-04-22T02:48:00.363Z,17.70
2023-04-22T02:49:00.280Z,17.90
2023-04-22T02:50:00.248Z,17.90
2023-04-22T02:51:00.175Z,17.90
2023-04-22T02:52:00.163Z,18.10
2023-04-22T02:53:00.096Z,18.80
2023-04-22T02:54:00.041Z,17.90
2023-04-22T02:54:59.996Z,18.40
2023-04-22T02:55:59.957Z,18.10
2023-04-22T02:56:59.901Z,18.20
2023-04-22T02:57:59.860Z,18.70
2023-04-22T02:58:59.800Z,17.60
2023-04-22T02:59:59.755Z,17.10
2023-04-22T03:00:59.843Z,17.70
2023-04-22T03:01:59.748Z,17.60
2023-04-22T03:02:59.724Z,17.50
2023-04-22T03:04:00.084Z,17.50
2023-04-22T03:04:59.518Z,17.10
2023-04-22T03:05:59.474Z,16.80
2023-04-22T03:06:59.430Z,17.60
2023-04-22T03:07:59.377Z,16.60
2023-04-22T03:08:59.333Z,16.80
2023-04-22T03:09:59.292Z,16.70
2023-04-22T03:10:59.239Z,17.80
2023-04-22T03:11:59.192Z,17.20
2023-04-22T03:12:59.143Z,17.10
2023-04-22T03:13:59.100Z,17.10
2023-04-22T03:14:59.056Z,17.20
2023-04-22T03:15:59.003Z,17.10
2023-04-22T03:16:59.075Z,16.90
2023-04-22T03:17:59.002Z,18.00
2023-04-22T03:18:58.863Z,17.60
2023-04-22T03:19:58.824Z,17.40
2023-04-22T03:20:58.774Z,16.80
2023-04-22T03:21:58.721Z,17.80
2023-04-22T03:22:58.670Z,18.00
2023-04-22T03:23:58.629Z,18.00
2023-04-22T03:24:58.593Z,18.10
2023-04-22T03:25:58.541Z,18.10
2023-04-22T03:26:58.493Z,18.20
2023-04-22T03:27:58.441Z,17.20
2023-04-22T03:28:58.393Z,18.40
2023-04-22T03:29:58.346Z,18.80
2023-04-22T03:30:58.300Z,17.80
2023-04-22T03:31:58.293Z,18.40
2023-04-22T03:32:58.253Z,17.10
2023-04-22T03:33:58.214Z,18.10
2023-04-22T03:34:58.117Z,17.80
2023-04-22T03:35:58.075Z,18.40
2023-04-22T03:36:58.016Z,17.80
2023-04-22T03:37:58.002Z,16.60
2023-04-22T03:38:57.926Z,18.10
2023-04-22T03:39:57.899Z,17.60
2023-04-22T03:40:57.830Z,17.60
2023-04-22T03:41:57.783Z,16.80
2023-04-22T03:42:57.735Z,17.80
2023-04-22T03:43:59.540Z,19.00
2023-04-22T03:44:57.652Z,18.30
2023-04-22T03:45:57.628Z,18.60
2023-04-22T03:46:57.584Z,17.20
2023-04-22T03:47:57.547Z,17.40
2023-04-22T03:48:57.452Z,17.50
2023-04-22T03:49:57.426Z,17.10
2023-04-22T03:50:57.356Z,17.90
2023-04-22T03:51:57.318Z,17.00
2023-04-22T03:52:57.281Z,18.30
2023-04-22T03:53:57.222Z,18.60
2023-04-22T03:54:57.169Z,18.40
2023-04-22T03:55:57.127Z,17.20
2023-04-22T03:56:57.085Z,17.60
2023-04-22T03:57:57.032Z,18.20
2023-04-22T03:58:56.986Z,18.60
2023-04-22T03:59:56.939Z,17.30
2023-04-22T04:00:56.890Z,18.10
2023-04-22T04:01:56.874Z,17.60
2023-04-22T04:02:56.934Z,17.90
2023-04-22T04:03:56.979Z,16.70
2023-04-22T04:04:57.016Z,17.10
2023-04-22T04:05:56.749Z,17.40
2023-04-22T04:06:56.610Z,17.90
2023-04-22T04:07:56.563Z,18.10
2023-04-22T04:08:56.514Z,17.90
2023-04-22T04:09:56.465Z,18.50
2023-04-22T04:10:56.423Z,17.20
2023-04-22T04:11:56.373Z,17.90
2023-04-22T04:12:56.321Z,18.60
2023-04-22T04:13:56.280Z,18.20
2023-04-22T04:14:56.235Z,17.90
2023-04-22T04:15:56.228Z,16.50
2023-04-22T04:16:56.136Z,17.80
2023-04-22T04:17:56.128Z,17.10
2023-04-22T04:18:56.040Z,17.10
2023-04-22T04:19:56.003Z,18.80
2023-04-22T04:20:55.945Z,18.40
2023-04-22T04:21:55.917Z,17.60
2023-04-22T04:22:55.853Z,17.90
2023-04-22T04:23:55.809Z,17.70
2023-04-22T04:24:55.758Z,19.30
2023-04-22T04:25:55.736Z,18.00
2023-04-22T04:26:55.673Z,18.30
2023-04-22T04:27:55.630Z,18.50
2023-04-22T04:28:55.579Z,18.10
2023-04-22T04:29:55.526Z,18.50
2023-04-22T04:30:55.485Z,18.40
2023-04-22T04:31:55.428Z,18.10
2023-04-22T04:32:55.393Z,17.40
2023-04-22T04:33:55.333Z,18.30
2023-04-22T04:34:55.294Z,18.00
2023-04-22T04:35:55.243Z,18.30
2023-04-22T04:36:55.193Z,17.70
2023-04-22T04:37:55.172Z,17.60
2023-04-22T04:38:55.716Z,18.00
2023-04-22T04:39:55.054Z,17.70
2023-04-22T04:40:55.008Z,18.20
2023-04-22T04:41:54.963Z,18.10
2023-04-22T04:42:54.912Z,18.10
2023-04-22T04:43:54.865Z,17.90
2023-04-22T04:44:54.815Z,17.90
2023-04-22T04:45:54.783Z,18.60
2023-04-22T04:46:54.989Z,17.20
2023-04-22T04:47:54.792Z,17.70
2023-04-22T04:48:54.624Z,18.10
2023-04-22T04:49:54.588Z,18.40
2023-04-22T04:50:54.535Z,18.60
2023-04-22T04:51:54.488Z,18.30
2023-04-22T04:52:54.442Z,19.20
2023-04-22T04:53:54.413Z,17.10
2023-04-22T04:54:54.348Z,19.30
2023-04-22T04:55:54.301Z,19.40
2023-04-22T04:56:54.260Z,20.20
2023-04-22T04:57:54.207Z,19.20
2023-04-22T04:58:54.160Z,18.40
2023-04-22T04:59:54.116Z,18.60
2023-04-22T05:00:54.063Z,19.00
2023-04-22T05:01:54.043Z,19.20
2023-04-22T05:02:54.049Z,19.40
2023-04-22T05:03:54.033Z,19.20
2023-04-22T05:04:53.927Z,18.90
2023-04-22T05:05:53.834Z,18.70
2023-04-22T05:06:53.786Z,18.70
2023-04-22T05:07:53.762Z,18.70
2023-04-22T05:08:53.694Z,18.50
2023-04-22T05:09:53.669Z,18.30
2023-04-22T05:10:53.598Z,18.40
2023-04-22T05:11:53.558Z,17.90
2023-04-22T05:12:53.510Z,18.60
2023-04-22T05:13:53.459Z,19.10
2023-04-22T05:14:53.414Z,17.90
2023-04-22T05:15:53.367Z,17.30
2023-04-22T05:16:53.405Z,18.20
2023-04-22T05:17:53.300Z,17.50
2023-04-22T05:18:53.227Z,18.00
2023-04-22T05:19:53.183Z,17.90
2023-04-22T05:20:53.131Z,18.00
2023-04-22T05:21:53.083Z,17.70
2023-04-22T05:22:53.045Z,18.40
2023-04-22T05:23:53.001Z,18.60
2023-04-22T05:24:52.962Z,18.10
2023-04-22T05:25:53.488Z,18.50
2023-04-22T05:26:52.850Z,18.20
2023-04-22T05:27:52.807Z,18.20
2023-04-22T05:28:52.782Z,18.60
2023-04-22T05:29:52.720Z,18.20
2023-04-22T05:30:52.679Z,17.30
2023-04-22T05:31:52.697Z,17.90
2023-04-22T05:32:52.651Z,18.40
2023-04-22T05:33:52.531Z,18.30
2023-04-22T05:34:52.480Z,18.50
2023-04-22T05:35:52.478Z,18.10
2023-04-22T05:36:52.388Z,17.60
2023-04-22T05:37:52.341Z,17.60
2023-04-22T05:38:52.299Z,17.10
2023-04-22T05:39:52.247Z,17.60
2023-04-22T05:40:52.205Z,17.80
2023-04-22T05:41:52.178Z,16.80
2023-04-22T05:42:52.103Z,17.90
2023-04-22T05:43:52.079Z,17.50
2023-04-22T05:44:52.028Z,18.30
2023-04-22T05:45:51.988Z,18.20
2023-04-22T05:46:51.938Z,18.30
2023-04-22T05:47:51.971Z,17.80
2023-04-22T05:48:51.879Z,17.90
2023-04-22T05:49:51.781Z,16.90
2023-04-22T05:50:51.730Z,18.40
2023-04-22T05:51:51.682Z,17.50
2023-04-22T05:52:51.635Z,18.20
2023-04-22T05:53:51.595Z,17.30
2023-04-22T05:54:51.542Z,17.20
2023-04-22T05:55:51.498Z,17.70
2023-04-22T05:56:51.449Z,16.60
2023-04-22T05:57:51.513Z,16.80
2023-04-22T05:58:51.361Z,17.80
2023-04-22T05:59:51.317Z,17.10
2023-04-22T06:00:51.263Z,18.00
2023-04-22T06:01:51.224Z,17.70
2023-04-22T06:02:51.326Z,17.80
2023-04-22T06:03:51.332Z,18.00
2023-04-22T06:04:51.391Z,18.30
2023-04-22T06:05:51.104Z,16.70
2023-04-22T06:06:50.983Z,17.20
2023-04-22T06:07:50.938Z,17.40
2023-04-22T21:45:33.324Z,12.80
2023-04-22T21:46:33.261Z,18.40
2023-04-22T21:47:33.222Z,21.50
2023-04-22T21:48:33.974Z,24.10
2023-04-22T21:49:33.103Z,24.70
2023-04-22T21:50:33.062Z,25.10
2023-04-22T21:51:33.003Z,26.10
2023-04-22T21:52:32.953Z,27.50
2023-04-22T21:53:32.908Z,27.20
2023-04-22T21:54:32.863Z,27.50
2023-04-22T21:55:32.815Z,27.20
2023-04-22T21:56:32.765Z,27.50
2023-04-22T21:57:32.734Z,27.40
2023-04-22T21:58:32.690Z,27.80
2023-04-22T21:59:32.637Z,26.60
2023-04-22T22:00:32.591Z,28.30
2023-04-22T22:01:32.590Z,28.50
2023-04-22T22:02:32.599Z,28.60
2023-04-22T22:03:32.543Z,28.50
2023-04-22T22:04:32.500Z,28.00
2023-04-22T22:05:32.361Z,28.20
2023-04-22T22:06:32.320Z,29.70
2023-04-22T22:07:32.276Z,27.40
2023-04-22T22:08:32.231Z,29.20
2023-04-22T22:09:32.185Z,27.30
2023-04-22T22:10:32.138Z,28.70
2023-04-22T22:11:32.097Z,27.10
2023-04-22T22:12:32.067Z,28.20
2023-04-22T22:13:32.026Z,28.70
2023-04-22T22:14:31.965Z,29.50
2023-04-22T22:15:31.923Z,28.60
2023-04-22T22:16:31.944Z,29.50
2023-04-22T22:17:31.854Z,29.20
2023-04-22T22:18:31.786Z,29.30
2023-04-22T22:19:31.742Z,28.50
2023-04-22T22:20:31.695Z,27.80
2023-04-22T22:21:31.655Z,28.90
2023-04-22T22:22:33.029Z,28.60
2023-04-22T22:23:31.572Z,28.80
2023-04-22T22:24:31.572Z,28.80
2023-04-22T22:25:31.486Z,28.50
2023-04-22T22:26:31.431Z,28.80
2023-04-22T22:27:31.392Z,28.80
2023-04-22T22:28:31.348Z,28.20
2023-04-22T22:29:31.301Z,28.90
2023-04-22T22:31:31.244Z,28.90
2023-04-22T22:32:31.251Z,29.80
2023-04-22T22:33:31.146Z,29.40
2023-04-22T22:34:31.088Z,30.30
2023-04-22T22:35:31.037Z,29.70
2023-04-22T22:36:30.996Z,30.60
2023-04-22T22:37:30.955Z,29.80
2023-04-22T22:38:30.908Z,30.80
2023-04-22T22:39:30.861Z,29.60
2023-04-22T22:40:30.818Z,29.80
2023-04-22T22:41:30.774Z,30.20
2023-04-22T22:42:30.733Z,32.50
2023-04-22T22:43:30.691Z,31.80
2023-04-22T22:44:30.643Z,31.70
2023-04-22T22:45:30.624Z,31.70
2023-04-22T22:46:30.571Z,33.30
2023-04-22T22:47:30.531Z,33.20
2023-04-22T22:48:30.465Z,33.70
2023-04-22T22:49:30.439Z,32.50
2023-04-22T22:50:30.422Z,31.60
2023-04-22T22:51:30.340Z,33.30
2023-04-22T22:52:30.287Z,33.60
2023-04-22T22:53:30.294Z,33.80
2023-04-22T22:54:30.221Z,34.20
2023-04-22T22:55:30.199Z,34.10
2023-04-22T22:56:30.120Z,34.50
2023-04-22T22:57:30.068Z,35.00
2023-04-22T22:58:30.031Z,35.40
2023-04-22T22:59:29.989Z,34.90
2023-04-22T23:00:29.938Z,35.50
2023-04-22T23:01:29.975Z,34.60
2023-04-22T23:02:29.946Z,35.60
2023-04-22T23:03:30.106Z,35.40
2023-04-22T23:04:29.937Z,36.30
2023-04-22T23:05:29.761Z,35.00
2023-04-22T23:06:29.687Z,36.80
2023-04-22T23:07:29.647Z,34.60
2023-04-22T23:08:29.593Z,35.50
2023-04-22T23:09:29.546Z,34.90
2023-04-22T23:10:29.517Z,36.30
2023-04-22T23:11:29.470Z,36.40
2023-04-22T23:12:29.432Z,35.80
2023-04-22T23:13:29.476Z,35.50
2023-04-22T23:14:29.568Z,37.40
2023-04-22T23:15:29.489Z,37.10
2023-04-22T23:16:29.310Z,37.10
2023-04-22T23:17:29.236Z,37.10
2023-04-22T23:18:29.153Z,37.60
2023-04-22T23:19:29.125Z,36.00
2023-04-22T23:20:29.073Z,35.30
2023-04-22T23:21:29.039Z,34.50
2023-04-22T23:22:28.978Z,35.60
2023-04-22T23:23:28.931Z,37.30
2023-04-22T23:24:28.891Z,37.70
2023-04-22T23:25:28.846Z,35.90
2023-04-22T23:26:28.801Z,36.10
2023-04-22T23:27:28.756Z,36.20
2023-04-22T23:28:28.748Z,37.80
2023-04-22T23:29:28.671Z,36.10
2023-04-22T23:30:28.629Z,37.00
2023-04-22T23:31:28.655Z,37.60
2023-04-22T23:32:28.559Z,37.60
2023-04-22T23:33:28.500Z,36.50
2023-04-22T23:34:28.451Z,35.50
2023-04-22T23:35:28.417Z,35.70
2023-04-22T23:36:28.362Z,36.30
2023-04-22T23:37:28.352Z,35.10
2023-04-22T23:38:28.276Z,34.90
2023-04-22T23:39:28.230Z,37.30
2023-04-22T23:40:28.194Z,36.30
2023-04-22T23:41:28.141Z,35.10
2023-04-22T23:42:28.124Z,37.10
2023-04-22T23:43:28.058Z,35.60
2023-04-22T23:44:28.024Z,37.00
2023-04-22T23:45:27.964Z,39.20
2023-04-22T23:46:28.021Z,37.10
2023-04-22T23:47:27.917Z,37.50
2023-04-22T23:48:27.832Z,35.30
2023-04-22T23:49:27.790Z,36.80
2023-04-22T23:50:27.748Z,38.50
2023-04-22T23:51:27.699Z,38.80
2023-04-22T23:52:27.659Z,39.20
2023-04-22T23:53:27.631Z,39.50
2023-04-22T23:54:27.567Z,39.10
2023-04-22T23:55:27.537Z,39.20
2023-04-22T23:56:27.479Z,37.20
2023-04-22T23:57:27.447Z,40.30
2023-04-22T23:58:27.395Z,38.70
2023-04-22T23:59:27.352Z,37.90
